sensor_id;sensor_type;location;lat;lon;timestamp;temperature;humidity
20315;DHT22;10315;50.958;13.080;2022-08-01T00:08:38;18.70;99.90
20315;DHT22;10315;50.958;13.080;2022-08-01T00:18:42;18.50;99.90
20315;DHT22;10315;50.958;13.080;2022-08-01T00:28:44;18.30;99.90
20315;DHT22;10315;50.958;13.080;2022-08-01T00:38:47;18.20;99.90
20315;DHT22;10315;50.958;13.080;2022-08-01T00:48:51;18.00;99.90
20315;DHT22;10315;50.958;13.080;2022-08-01T00:58:55;17.80;99.90
20315;DHT22;10315;50.958;13.080;2022-08-01T01:09:15;17.50;99.90
20315;DHT22;10315;50.958;13.080;2022-08-01T01:19:24;17.70;99.90
20315;DHT22;10315;50.958;13.080;2022-08-01T01:29:33;17.60;99.90
20315;DHT22;10315;50.958;13.080;2022-08-01T01:39:37;17.70;99.90
20315;DHT22;10315;50.958;13.080;2022-08-01T01:49:43;17.90;99.90
20315;DHT22;10315;50.958;13.080;2022-08-01T01:59:46;17.70;99.90
20315;DHT22;10315;50.958;13.080;2022-08-01T02:09:53;17.70;99.90
20315;DHT22;10315;50.958;13.080;2022-08-01T02:19:55;17.90;99.90
20315;DHT22;10315;50.958;13.080;2022-08-01T02:29:59;17.80;99.90
20315;DHT22;10315;50.958;13.080;2022-08-01T02:40:02;17.70;99.90
20315;DHT22;10315;50.958;13.080;2022-08-01T02:50:08;17.60;99.90
20315;DHT22;10315;50.958;13.080;2022-08-01T03:00:12;17.50;99.90
20315;DHT22;10315;50.958;13.080;2022-08-01T03:10:16;17.60;99.90
20315;DHT22;10315;50.958;13.080;2022-08-01T03:20:18;17.40;99.90
20315;DHT22;10315;50.958;13.080;2022-08-01T03:30:23;17.30;99.90
20315;DHT22;10315;50.958;13.080;2022-08-01T03:40:31;17.30;99.90
20315;DHT22;10315;50.958;13.080;2022-08-01T03:50:41;17.30;99.90
20315;DHT22;10315;50.958;13.080;2022-08-01T04:00:44;17.40;99.90
20315;DHT22;10315;50.958;13.080;2022-08-01T04:10:47;17.50;99.90
20315;DHT22;10315;50.958;13.080;2022-08-01T04:20:49;17.50;99.90
20315;DHT22;10315;50.958;13.080;2022-08-01T04:30:54;17.60;99.90
20315;DHT22;10315;50.958;13.080;2022-08-01T04:40:57;17.30;99.90
20315;DHT22;10315;50.958;13.080;2022-08-01T04:51:00;17.00;99.90
20315;DHT22;10315;50.958;13.080;2022-08-01T05:01:02;17.00;99.90
20315;DHT22;10315;50.958;13.080;2022-08-01T05:11:05;17.20;99.90
20315;DHT22;10315;50.958;13.080;2022-08-01T05:21:06;17.30;99.90
20315;DHT22;10315;50.958;13.080;2022-08-01T05:31:09;17.30;99.90
20315;DHT22;10315;50.958;13.080;2022-08-01T05:41:11;17.30;99.90
20315;DHT22;10315;50.958;13.080;2022-08-01T05:51:14;17.40;99.90
20315;DHT22;10315;50.958;13.080;2022-08-01T06:01:16;17.50;99.90
20315;DHT22;10315;50.958;13.080;2022-08-01T06:11:19;17.60;99.90
20315;DHT22;10315;50.958;13.080;2022-08-01T06:21:21;17.60;99.90
20315;DHT22;10315;50.958;13.080;2022-08-01T06:31:24;17.70;99.90
20315;DHT22;10315;50.958;13.080;2022-08-01T06:41:25;17.90;99.90
20315;DHT22;10315;50.958;13.080;2022-08-01T06:51:28;18.00;99.90
20315;DHT22;10315;50.958;13.080;2022-08-01T07:01:30;18.30;99.90
20315;DHT22;10315;50.958;13.080;2022-08-01T07:11:33;18.60;99.90
20315;DHT22;10315;50.958;13.080;2022-08-01T07:21:35;18.60;99.90
20315;DHT22;10315;50.958;13.080;2022-08-01T07:31:38;18.90;99.90
20315;DHT22;10315;50.958;13.080;2022-08-01T07:41:39;19.50;99.90
20315;DHT22;10315;50.958;13.080;2022-08-01T07:51:45;19.70;99.90
20315;DHT22;10315;50.958;13.080;2022-08-01T08:01:47;19.20;99.90
20315;DHT22;10315;50.958;13.080;2022-08-01T08:11:50;18.80;99.90
20315;DHT22;10315;50.958;13.080;2022-08-01T08:21:51;18.90;99.90
20315;DHT22;10315;50.958;13.080;2022-08-01T08:31:55;20.00;99.90
20315;DHT22;10315;50.958;13.080;2022-08-01T08:41:56;23.70;99.90
20315;DHT22;10315;50.958;13.080;2022-08-01T08:52:01;23.20;99.90
20315;DHT22;10315;50.958;13.080;2022-08-01T09:02:03;23.90;99.90
20315;DHT22;10315;50.958;13.080;2022-08-01T09:12:07;27.90;99.90
20315;DHT22;10315;50.958;13.080;2022-08-01T09:22:11;30.80;99.90
20315;DHT22;10315;50.958;13.080;2022-08-01T09:32:14;29.40;99.90
20315;DHT22;10315;50.958;13.080;2022-08-01T09:42:21;33.30;99.90
20315;DHT22;10315;50.958;13.080;2022-08-01T09:52:26;28.50;99.90
20315;DHT22;10315;50.958;13.080;2022-08-01T10:02:30;27.00;99.90
20315;DHT22;10315;50.958;13.080;2022-08-01T10:12:34;29.10;99.90
20315;DHT22;10315;50.958;13.080;2022-08-01T10:22:36;28.20;99.90
20315;DHT22;10315;50.958;13.080;2022-08-01T10:32:40;28.30;99.90
20315;DHT22;10315;50.958;13.080;2022-08-01T10:42:43;26.60;99.90
20315;DHT22;10315;50.958;13.080;2022-08-01T10:53:08;26.60;99.90
20315;DHT22;10315;50.958;13.080;2022-08-01T11:03:12;26.50;99.90
20315;DHT22;10315;50.958;13.080;2022-08-01T11:13:31;26.50;99.90
20315;DHT22;10315;50.958;13.080;2022-08-01T11:23:53;28.00;99.90
20315;DHT22;10315;50.958;13.080;2022-08-01T11:33:57;26.50;99.90
20315;DHT22;10315;50.958;13.080;2022-08-01T11:44:01;26.20;99.90
20315;DHT22;10315;50.958;13.080;2022-08-01T11:54:04;27.70;99.90
20315;DHT22;10315;50.958;13.080;2022-08-01T12:04:06;27.70;99.90
20315;DHT22;10315;50.958;13.080;2022-08-01T12:14:09;28.10;99.90
20315;DHT22;10315;50.958;13.080;2022-08-01T12:24:11;27.70;99.90
20315;DHT22;10315;50.958;13.080;2022-08-01T12:34:27;27.60;99.90
20315;DHT22;10315;50.958;13.080;2022-08-01T12:44:30;26.50;99.90
20315;DHT22;10315;50.958;13.080;2022-08-01T12:55:00;27.20;99.90
20315;DHT22;10315;50.958;13.080;2022-08-01T13:05:03;28.00;99.90
20315;DHT22;10315;50.958;13.080;2022-08-01T13:15:22;27.00;99.90
20315;DHT22;10315;50.958;13.080;2022-08-01T13:25:24;26.60;99.90
20315;DHT22;10315;50.958;13.080;2022-08-01T13:35:29;26.90;99.90
20315;DHT22;10315;50.958;13.080;2022-08-01T13:45:31;26.80;99.90
20315;DHT22;10315;50.958;13.080;2022-08-01T13:55:34;26.30;99.90
20315;DHT22;10315;50.958;13.080;2022-08-01T14:05:36;26.90;99.90
20315;DHT22;10315;50.958;13.080;2022-08-01T14:15:39;26.10;99.90
20315;DHT22;10315;50.958;13.080;2022-08-01T14:25:40;26.40;99.90
20315;DHT22;10315;50.958;13.080;2022-08-01T14:35:44;27.10;99.90
20315;DHT22;10315;50.958;13.080;2022-08-01T14:45:46;26.30;99.90
20315;DHT22;10315;50.958;13.080;2022-08-01T14:55:51;26.40;99.90
20315;DHT22;10315;50.958;13.080;2022-08-01T15:05:52;27.10;99.90
20315;DHT22;10315;50.958;13.080;2022-08-01T15:15:55;27.10;99.90
20315;DHT22;10315;50.958;13.080;2022-08-01T15:25:58;26.40;99.90
20315;DHT22;10315;50.958;13.080;2022-08-01T15:36:01;25.90;99.90
20315;DHT22;10315;50.958;13.080;2022-08-01T15:46:03;25.90;99.90
20315;DHT22;10315;50.958;13.080;2022-08-01T15:56:06;25.90;99.90
20315;DHT22;10315;50.958;13.080;2022-08-01T16:06:09;25.70;99.90
20315;DHT22;10315;50.958;13.080;2022-08-01T16:16:12;25.70;99.90
20315;DHT22;10315;50.958;13.080;2022-08-01T16:26:14;25.10;99.90
20315;DHT22;10315;50.958;13.080;2022-08-01T16:36:17;24.90;99.90
20315;DHT22;10315;50.958;13.080;2022-08-01T16:46:19;24.90;99.90
20315;DHT22;10315;50.958;13.080;2022-08-01T16:56:22;24.60;99.90
20315;DHT22;10315;50.958;13.080;2022-08-01T17:06:23;24.60;99.90
20315;DHT22;10315;50.958;13.080;2022-08-01T17:16:27;24.50;99.90
20315;DHT22;10315;50.958;13.080;2022-08-01T17:26:28;24.20;99.90
20315;DHT22;10315;50.958;13.080;2022-08-01T17:36:31;23.80;99.90
20315;DHT22;10315;50.958;13.080;2022-08-01T17:46:33;23.70;99.90
20315;DHT22;10315;50.958;13.080;2022-08-01T17:56:36;23.40;99.90
20315;DHT22;10315;50.958;13.080;2022-08-01T18:06:38;23.00;99.90
20315;DHT22;10315;50.958;13.080;2022-08-01T18:16:41;22.60;99.90
20315;DHT22;10315;50.958;13.080;2022-08-01T18:26:43;22.20;99.90
20315;DHT22;10315;50.958;13.080;2022-08-01T18:36:46;21.80;99.90
20315;DHT22;10315;50.958;13.080;2022-08-01T18:46:47;21.40;99.90
20315;DHT22;10315;50.958;13.080;2022-08-01T18:56:50;20.90;99.90
20315;DHT22;10315;50.958;13.080;2022-08-01T19:06:52;20.60;99.90
20315;DHT22;10315;50.958;13.080;2022-08-01T19:16:55;20.10;99.90
20315;DHT22;10315;50.958;13.080;2022-08-01T19:26:58;19.60;99.90
20315;DHT22;10315;50.958;13.080;2022-08-01T19:37:03;19.40;99.90
20315;DHT22;10315;50.958;13.080;2022-08-01T19:47:05;19.20;99.90
20315;DHT22;10315;50.958;13.080;2022-08-01T19:57:11;19.00;99.90
20315;DHT22;10315;50.958;13.080;2022-08-01T20:07:13;19.00;99.90
20315;DHT22;10315;50.958;13.080;2022-08-01T20:17:18;18.80;99.90
20315;DHT22;10315;50.958;13.080;2022-08-01T20:27:23;18.70;99.90
20315;DHT22;10315;50.958;13.080;2022-08-01T20:37:27;18.60;99.90
20315;DHT22;10315;50.958;13.080;2022-08-01T20:47:31;18.20;99.90
20315;DHT22;10315;50.958;13.080;2022-08-01T20:57:35;18.20;99.90
20315;DHT22;10315;50.958;13.080;2022-08-01T21:07:38;17.90;99.90
20315;DHT22;10315;50.958;13.080;2022-08-01T21:17:49;17.90;99.90
20315;DHT22;10315;50.958;13.080;2022-08-01T21:27:54;17.50;99.90
20315;DHT22;10315;50.958;13.080;2022-08-01T21:37:57;17.30;99.90
20315;DHT22;10315;50.958;13.080;2022-08-01T21:48:00;17.10;99.90
20315;DHT22;10315;50.958;13.080;2022-08-01T21:58:16;17.40;99.90
20315;DHT22;10315;50.958;13.080;2022-08-01T22:08:26;17.30;99.90
20315;DHT22;10315;50.958;13.080;2022-08-01T22:18:31;17.40;99.90
20315;DHT22;10315;50.958;13.080;2022-08-01T22:28:34;17.60;99.90
20315;DHT22;10315;50.958;13.080;2022-08-01T22:38:37;17.10;99.90
20315;DHT22;10315;50.958;13.080;2022-08-01T22:48:44;16.80;99.90
20315;DHT22;10315;50.958;13.080;2022-08-01T22:58:47;16.60;99.90
20315;DHT22;10315;50.958;13.080;2022-08-01T23:08:49;16.30;99.90
20315;DHT22;10315;50.958;13.080;2022-08-01T23:18:52;16.10;99.90
20315;DHT22;10315;50.958;13.080;2022-08-01T23:28:56;15.80;99.90
20315;DHT22;10315;50.958;13.080;2022-08-01T23:38:59;15.70;99.90
20315;DHT22;10315;50.958;13.080;2022-08-01T23:49:01;15.70;99.90
20315;DHT22;10315;50.958;13.080;2022-08-01T23:59:04;15.50;99.90
